sensor_id;sensor_type;location;lat;lon;timestamp;P1;durP1;ratioP1;P2;durP2;ratioP2
9986;SDS011;5033;46.310;11.214;2022-07-19T00:00:36;3.65;;;3.17;;
9986;SDS011;5033;46.310;11.214;2022-07-19T00:03:04;3.90;;;3.40;;
9986;SDS011;5033;46.310;11.214;2022-07-19T00:05:32;4.00;;;3.70;;
9986;SDS011;5033;46.310;11.214;2022-07-19T00:07:59;3.30;;;2.97;;
9986;SDS011;5033;46.310;11.214;2022-07-19T00:10:26;3.35;;;3.05;;
9986;SDS011;5033;46.310;11.214;2022-07-19T00:12:53;2.80;;;2.60;;
9986;SDS011;5033;46.310;11.214;2022-07-19T00:15:20;3.30;;;3.10;;
9986;SDS011;5033;46.310;11.214;2022-07-19T00:17:48;3.38;;;3.10;;
9986;SDS011;5033;46.310;11.214;2022-07-19T00:20:17;4.38;;;3.25;;
9986;SDS011;5033;46.310;11.214;2022-07-19T00:22:46;3.78;;;3.10;;
9986;SDS011;5033;46.310;11.214;2022-07-19T00:25:13;3.95;;;3.20;;
9986;SDS011;5033;46.310;11.214;2022-07-19T00:27:41;3.97;;;2.90;;
9986;SDS011;5033;46.310;11.214;2022-07-19T00:30:09;3.10;;;2.90;;
9986;SDS011;5033;46.310;11.214;2022-07-19T00:32:36;4.00;;;3.35;;
9986;SDS011;5033;46.310;11.214;2022-07-19T00:35:04;3.85;;;3.25;;
9986;SDS011;5033;46.310;11.214;2022-07-19T00:37:33;3.35;;;3.15;;
9986;SDS011;5033;46.310;11.214;2022-07-19T00:40:00;3.00;;;2.80;;
9986;SDS011;5033;46.310;11.214;2022-07-19T00:42:27;4.32;;;2.80;;
9986;SDS011;5033;46.310;11.214;2022-07-19T00:44:54;3.50;;;3.20;;
9986;SDS011;5033;46.310;11.214;2022-07-19T00:47:21;3.70;;;3.40;;
9986;SDS011;5033;46.310;11.214;2022-07-19T00:49:48;3.42;;;3.20;;
9986;SDS011;5033;46.310;11.214;2022-07-19T00:52:15;3.50;;;3.20;;
9986;SDS011;5033;46.310;11.214;2022-07-19T00:54:47;3.05;;;2.83;;
9986;SDS011;5033;46.310;11.214;2022-07-19T00:57:19;5.00;;;3.40;;
9986;SDS011;5033;46.310;11.214;2022-07-19T00:59:49;3.58;;;3.25;;
9986;SDS011;5033;46.310;11.214;2022-07-19T01:02:19;3.40;;;3.10;;
9986;SDS011;5033;46.310;11.214;2022-07-19T01:04:47;3.55;;;3.25;;
9986;SDS011;5033;46.310;11.214;2022-07-19T01:07:14;3.47;;;3.17;;
9986;SDS011;5033;46.310;11.214;2022-07-19T01:09:41;4.20;;;3.80;;
9986;SDS011;5033;46.310;11.214;2022-07-19T01:12:09;3.35;;;3.15;;
9986;SDS011;5033;46.310;11.214;2022-07-19T01:14:37;3.45;;;3.15;;
9986;SDS011;5033;46.310;11.214;2022-07-19T01:17:04;3.70;;;3.40;;
9986;SDS011;5033;46.310;11.214;2022-07-19T01:19:31;3.60;;;3.30;;
9986;SDS011;5033;46.310;11.214;2022-07-19T01:22:00;3.65;;;3.35;;
9986;SDS011;5033;46.310;11.214;2022-07-19T01:24:27;3.65;;;3.35;;
9986;SDS011;5033;46.310;11.214;2022-07-19T01:26:54;3.25;;;2.95;;
9986;SDS011;5033;46.310;11.214;2022-07-19T01:29:22;3.55;;;3.25;;
9986;SDS011;5033;46.310;11.214;2022-07-19T01:31:49;4.10;;;3.40;;
9986;SDS011;5033;46.310;11.214;2022-07-19T01:34:17;4.43;;;4.03;;
9986;SDS011;5033;46.310;11.214;2022-07-19T01:36:44;3.47;;;3.10;;
9986;SDS011;5033;46.310;11.214;2022-07-19T01:39:12;4.38;;;4.00;;
9986;SDS011;5033;46.310;11.214;2022-07-19T01:41:39;3.92;;;3.63;;
9986;SDS011;5033;46.310;11.214;2022-07-19T01:44:06;5.25;;;3.88;;
9986;SDS011;5033;46.310;11.214;2022-07-19T01:46:33;3.88;;;3.50;;
9986;SDS011;5033;46.310;11.214;2022-07-19T01:49:00;4.50;;;4.13;;
9986;SDS011;5033;46.310;11.214;2022-07-19T01:51:28;3.47;;;3.28;;
9986;SDS011;5033;46.310;11.214;2022-07-19T01:53:55;4.57;;;4.18;;
9986;SDS011;5033;46.310;11.214;2022-07-19T01:56:23;4.13;;;3.72;;
9986;SDS011;5033;46.310;11.214;2022-07-19T01:58:50;4.38;;;3.97;;
9986;SDS011;5033;46.310;11.214;2022-07-19T02:01:17;4.20;;;3.90;;
9986;SDS011;5033;46.310;11.214;2022-07-19T02:03:45;3.92;;;3.63;;
9986;SDS011;5033;46.310;11.214;2022-07-19T02:06:12;3.83;;;3.33;;
9986;SDS011;5033;46.310;11.214;2022-07-19T02:08:39;3.83;;;3.47;;
9986;SDS011;5033;46.310;11.214;2022-07-19T02:11:07;4.60;;;4.20;;
9986;SDS011;5033;46.310;11.214;2022-07-19T02:13:49;4.03;;;3.72;;
9986;SDS011;5033;46.310;11.214;2022-07-19T02:16:16;3.90;;;3.60;;
9986;SDS011;5033;46.310;11.214;2022-07-19T02:18:43;6.53;;;4.10;;
9986;SDS011;5033;46.310;11.214;2022-07-19T02:21:11;3.83;;;3.53;;
9986;SDS011;5033;46.310;11.214;2022-07-19T02:23:38;3.75;;;3.45;;
9986;SDS011;5033;46.310;11.214;2022-07-19T02:26:05;3.70;;;3.40;;
9986;SDS011;5033;46.310;11.214;2022-07-19T02:28:32;3.67;;;3.38;;
9986;SDS011;5033;46.310;11.214;2022-07-19T02:31:00;4.22;;;3.92;;
9986;SDS011;5033;46.310;11.214;2022-07-19T02:33:28;3.55;;;3.25;;
9986;SDS011;5033;46.310;11.214;2022-07-19T02:35:55;4.65;;;3.60;;
9986;SDS011;5033;46.310;11.214;2022-07-19T02:38:22;3.97;;;3.67;;
9986;SDS011;5033;46.310;11.214;2022-07-19T02:40:49;4.28;;;3.88;;
9986;SDS011;5033;46.310;11.214;2022-07-19T02:43:16;3.85;;;3.55;;
9986;SDS011;5033;46.310;11.214;2022-07-19T02:45:43;3.70;;;3.40;;
9986;SDS011;5033;46.310;11.214;2022-07-19T02:48:11;4.22;;;3.83;;
9986;SDS011;5033;46.310;11.214;2022-07-19T02:50:38;4.00;;;3.70;;
9986;SDS011;5033;46.310;11.214;2022-07-19T02:53:06;4.25;;;3.90;;
9986;SDS011;5033;46.310;11.214;2022-07-19T02:55:33;3.72;;;3.42;;
9986;SDS011;5033;46.310;11.214;2022-07-19T02:58:00;4.00;;;3.60;;
9986;SDS011;5033;46.310;11.214;2022-07-19T03:00:27;4.40;;;4.05;;
9986;SDS011;5033;46.310;11.214;2022-07-19T03:02:55;3.90;;;3.55;;
9986;SDS011;5033;46.310;11.214;2022-07-19T03:05:45;3.65;;;3.35;;
9986;SDS011;5033;46.310;11.214;2022-07-19T03:08:12;4.63;;;4.25;;
9986;SDS011;5033;46.310;11.214;2022-07-19T03:10:40;4.10;;;3.80;;
9986;SDS011;5033;46.310;11.214;2022-07-19T03:13:07;3.75;;;3.47;;
9986;SDS011;5033;46.310;11.214;2022-07-19T03:15:35;4.60;;;4.20;;
9986;SDS011;5033;46.310;11.214;2022-07-19T03:18:02;3.80;;;3.50;;
9986;SDS011;5033;46.310;11.214;2022-07-19T03:20:29;4.60;;;4.20;;
9986;SDS011;5033;46.310;11.214;2022-07-19T03:22:58;4.18;;;3.88;;
9986;SDS011;5033;46.310;11.214;2022-07-19T03:25:25;4.20;;;3.90;;
9986;SDS011;5033;46.310;11.214;2022-07-19T03:27:52;4.60;;;4.20;;
9986;SDS011;5033;46.310;11.214;2022-07-19T03:30:19;3.80;;;3.50;;
9986;SDS011;5033;46.310;11.214;2022-07-19T03:32:47;4.57;;;4.18;;
9986;SDS011;5033;46.310;11.214;2022-07-19T03:35:14;4.82;;;4.38;;
9986;SDS011;5033;46.310;11.214;2022-07-19T03:37:41;4.85;;;4.38;;
9986;SDS011;5033;46.310;11.214;2022-07-19T03:40:10;4.88;;;4.47;;
9986;SDS011;5033;46.310;11.214;2022-07-19T03:42:38;4.65;;;3.90;;
9986;SDS011;5033;46.310;11.214;2022-07-19T03:45:05;4.13;;;3.83;;
9986;SDS011;5033;46.310;11.214;2022-07-19T03:47:33;4.28;;;3.88;;
9986;SDS011;5033;46.310;11.214;2022-07-19T03:50:00;4.10;;;3.67;;
9986;SDS011;5033;46.310;11.214;2022-07-19T03:52:27;4.05;;;3.65;;
9986;SDS011;5033;46.310;11.214;2022-07-19T03:54:54;4.15;;;3.85;;
9986;SDS011;5033;46.310;11.214;2022-07-19T03:57:23;4.35;;;3.78;;
9986;SDS011;5033;46.310;11.214;2022-07-19T03:59:50;4.03;;;3.72;;
9986;SDS011;5033;46.310;11.214;2022-07-19T04:02:17;4.47;;;4.13;;
9986;SDS011;5033;46.310;11.214;2022-07-19T04:04:44;4.07;;;3.78;;
9986;SDS011;5033;46.310;11.214;2022-07-19T04:07:11;4.30;;;4.00;;
9986;SDS011;5033;46.310;11.214;2022-07-19T04:09:38;4.03;;;3.72;;
9986;SDS011;5033;46.310;11.214;2022-07-19T04:12:05;4.25;;;3.95;;
9986;SDS011;5033;46.310;11.214;2022-07-19T04:14:33;4.25;;;3.85;;
9986;SDS011;5033;46.310;11.214;2022-07-19T04:17:01;3.97;;;3.67;;
9986;SDS011;5033;46.310;11.214;2022-07-19T04:19:29;5.13;;;4.40;;
9986;SDS011;5033;46.310;11.214;2022-07-19T04:21:56;4.47;;;4.07;;
9986;SDS011;5033;46.310;11.214;2022-07-19T04:24:23;4.50;;;4.20;;
9986;SDS011;5033;46.310;11.214;2022-07-19T04:26:50;4.40;;;4.00;;
9986;SDS011;5033;46.310;11.214;2022-07-19T04:29:17;4.00;;;3.70;;
9986;SDS011;5033;46.310;11.214;2022-07-19T04:31:46;3.70;;;3.40;;
9986;SDS011;5033;46.310;11.214;2022-07-19T04:34:13;3.97;;;3.58;;
9986;SDS011;5033;46.310;11.214;2022-07-19T04:36:40;4.28;;;3.63;;
9986;SDS011;5033;46.310;11.214;2022-07-19T04:39:07;4.65;;;3.88;;
9986;SDS011;5033;46.310;11.214;2022-07-19T04:41:34;4.55;;;4.15;;
9986;SDS011;5033;46.310;11.214;2022-07-19T04:44:01;3.95;;;3.58;;
9986;SDS011;5033;46.310;11.214;2022-07-19T04:46:28;3.70;;;3.40;;
9986;SDS011;5033;46.310;11.214;2022-07-19T04:48:57;3.50;;;3.30;;
9986;SDS011;5033;46.310;11.214;2022-07-19T04:51:24;3.55;;;3.35;;
9986;SDS011;5033;46.310;11.214;2022-07-19T04:53:51;3.78;;;3.47;;
9986;SDS011;5033;46.310;11.214;2022-07-19T04:56:18;3.67;;;3.45;;
9986;SDS011;5033;46.310;11.214;2022-07-19T04:58:46;3.55;;;3.35;;
9986;SDS011;5033;46.310;11.214;2022-07-19T05:01:13;3.72;;;3.40;;
9986;SDS011;5033;46.310;11.214;2022-07-19T05:03:40;3.95;;;3.65;;
9986;SDS011;5033;46.310;11.214;2022-07-19T05:06:08;3.90;;;3.50;;
9986;SDS011;5033;46.310;11.214;2022-07-19T05:08:35;3.80;;;3.50;;
9986;SDS011;5033;46.310;11.214;2022-07-19T05:11:03;4.15;;;3.75;;
9986;SDS011;5033;46.310;11.214;2022-07-19T05:13:30;4.28;;;3.85;;
9986;SDS011;5033;46.310;11.214;2022-07-19T05:15:57;4.03;;;3.70;;
9986;SDS011;5033;46.310;11.214;2022-07-19T05:18:24;4.05;;;3.70;;
9986;SDS011;5033;46.310;11.214;2022-07-19T05:20:51;4.10;;;3.80;;
9986;SDS011;5033;46.310;11.214;2022-07-19T05:23:20;4.32;;;3.83;;
9986;SDS011;5033;46.310;11.214;2022-07-19T05:25:47;5.03;;;3.80;;
9986;SDS011;5033;46.310;11.214;2022-07-19T05:28:14;4.53;;;4.20;;
9986;SDS011;5033;46.310;11.214;2022-07-19T05:30:41;4.03;;;3.70;;
9986;SDS011;5033;46.310;11.214;2022-07-19T05:33:08;4.63;;;4.22;;
9986;SDS011;5033;46.310;11.214;2022-07-19T05:35:35;4.65;;;4.25;;
9986;SDS011;5033;46.310;11.214;2022-07-19T05:38:03;4.40;;;4.10;;
9986;SDS011;5033;46.310;11.214;2022-07-19T05:40:31;3.70;;;3.40;;
9986;SDS011;5033;46.310;11.214;2022-07-19T05:42:58;4.60;;;4.25;;
9986;SDS011;5033;46.310;11.214;2022-07-19T05:45:26;4.43;;;4.00;;
9986;SDS011;5033;46.310;11.214;2022-07-19T05:47:54;4.55;;;4.15;;
9986;SDS011;5033;46.310;11.214;2022-07-19T05:50:21;4.53;;;4.10;;
9986;SDS011;5033;46.310;11.214;2022-07-19T05:52:48;4.68;;;4.28;;
9986;SDS011;5033;46.310;11.214;2022-07-19T05:55:15;4.88;;;4.47;;
9986;SDS011;5033;46.310;11.214;2022-07-19T05:57:44;5.03;;;4.63;;
9986;SDS011;5033;46.310;11.214;2022-07-19T06:00:11;6.35;;;4.45;;
9986;SDS011;5033;46.310;11.214;2022-07-19T06:02:39;5.38;;;4.65;;
9986;SDS011;5033;46.310;11.214;2022-07-19T06:05:07;5.10;;;4.65;;
9986;SDS011;5033;46.310;11.214;2022-07-19T06:07:34;5.03;;;4.20;;
9986;SDS011;5033;46.310;11.214;2022-07-19T06:10:02;6.70;;;4.85;;
9986;SDS011;5033;46.310;11.214;2022-07-19T06:12:29;4.85;;;4.32;;
9986;SDS011;5033;46.310;11.214;2022-07-19T06:14:57;5.47;;;4.03;;
9986;SDS011;5033;46.310;11.214;2022-07-19T06:17:25;4.88;;;4.47;;
9986;SDS011;5033;46.310;11.214;2022-07-19T06:19:52;4.65;;;4.35;;
9986;SDS011;5033;46.310;11.214;2022-07-19T06:22:19;5.65;;;5.05;;
9986;SDS011;5033;46.310;11.214;2022-07-19T06:24:46;5.93;;;5.03;;
9986;SDS011;5033;46.310;11.214;2022-07-19T06:27:14;4.38;;;3.95;;
9986;SDS011;5033;46.310;11.214;2022-07-19T06:29:41;5.00;;;4.60;;
9986;SDS011;5033;46.310;11.214;2022-07-19T06:32:09;5.72;;;5.25;;
9986;SDS011;5033;46.310;11.214;2022-07-19T06:34:36;5.88;;;4.90;;
9986;SDS011;5033;46.310;11.214;2022-07-19T06:37:03;6.15;;;5.43;;
9986;SDS011;5033;46.310;11.214;2022-07-19T06:39:31;7.38;;;5.72;;
9986;SDS011;5033;46.310;11.214;2022-07-19T06:41:58;5.60;;;5.10;;
9986;SDS011;5033;46.310;11.214;2022-07-19T06:44:26;5.38;;;4.88;;
9986;SDS011;5033;46.310;11.214;2022-07-19T06:46:53;6.55;;;4.70;;
9986;SDS011;5033;46.310;11.214;2022-07-19T06:52:32;5.07;;;4.68;;
9986;SDS011;5033;46.310;11.214;2022-07-19T06:54:59;5.57;;;5.13;;
9986;SDS011;5033;46.310;11.214;2022-07-19T06:57:26;5.20;;;4.80;;
9986;SDS011;5033;46.310;11.214;2022-07-19T06:59:53;4.95;;;4.43;;
9986;SDS011;5033;46.310;11.214;2022-07-19T07:02:20;5.60;;;5.10;;
9986;SDS011;5033;46.310;11.214;2022-07-19T07:04:48;5.40;;;5.00;;
9986;SDS011;5033;46.310;11.214;2022-07-19T07:07:15;5.90;;;5.40;;
9986;SDS011;5033;46.310;11.214;2022-07-19T07:09:43;5.53;;;5.13;;
9986;SDS011;5033;46.310;11.214;2022-07-19T07:12:10;6.25;;;5.65;;
9986;SDS011;5033;46.310;11.214;2022-07-19T07:14:37;5.32;;;4.80;;
9986;SDS011;5033;46.310;11.214;2022-07-19T07:17:05;5.88;;;5.38;;
9986;SDS011;5033;46.310;11.214;2022-07-19T07:19:32;6.25;;;5.65;;
9986;SDS011;5033;46.310;11.214;2022-07-19T07:21:59;6.03;;;5.40;;
9986;SDS011;5033;46.310;11.214;2022-07-19T07:24:26;5.47;;;5.07;;
9986;SDS011;5033;46.310;11.214;2022-07-19T07:26:55;6.40;;;5.80;;
9986;SDS011;5033;46.310;11.214;2022-07-19T07:29:22;9.30;;;5.30;;
9986;SDS011;5033;46.310;11.214;2022-07-19T07:31:49;5.78;;;5.07;;
9986;SDS011;5033;46.310;11.214;2022-07-19T07:34:17;5.55;;;4.65;;
9986;SDS011;5033;46.310;11.214;2022-07-19T07:36:44;5.82;;;5.15;;
9986;SDS011;5033;46.310;11.214;2022-07-19T07:39:11;5.78;;;5.30;;
9986;SDS011;5033;46.310;11.214;2022-07-19T07:41:39;7.20;;;5.10;;
9986;SDS011;5033;46.310;11.214;2022-07-19T07:44:08;6.05;;;5.55;;
9986;SDS011;5033;46.310;11.214;2022-07-19T07:46:35;5.75;;;5.25;;
9986;SDS011;5033;46.310;11.214;2022-07-19T07:49:02;6.57;;;5.43;;
9986;SDS011;5033;46.310;11.214;2022-07-19T07:51:30;6.05;;;5.55;;
9986;SDS011;5033;46.310;11.214;2022-07-19T07:53:58;6.07;;;5.10;;
9986;SDS011;5033;46.310;11.214;2022-07-19T07:56:25;5.97;;;5.47;;
9986;SDS011;5033;46.310;11.214;2022-07-19T07:58:55;5.30;;;4.88;;
9986;SDS011;5033;46.310;11.214;2022-07-19T08:01:23;5.40;;;4.90;;
9986;SDS011;5033;46.310;11.214;2022-07-19T08:03:51;5.47;;;4.97;;
9986;SDS011;5033;46.310;11.214;2022-07-19T08:06:18;5.55;;;5.05;;
9986;SDS011;5033;46.310;11.214;2022-07-19T08:08:45;5.50;;;5.10;;
9986;SDS011;5033;46.310;11.214;2022-07-19T08:11:12;6.75;;;5.50;;
9986;SDS011;5033;46.310;11.214;2022-07-19T08:13:39;5.78;;;5.28;;
9986;SDS011;5033;46.310;11.214;2022-07-19T08:16:06;6.30;;;5.60;;
9986;SDS011;5033;46.310;11.214;2022-07-19T08:18:35;5.40;;;4.90;;
9986;SDS011;5033;46.310;11.214;2022-07-19T08:21:02;6.13;;;5.53;;
9986;SDS011;5033;46.310;11.214;2022-07-19T08:23:29;5.38;;;4.97;;
9986;SDS011;5033;46.310;11.214;2022-07-19T08:25:56;6.05;;;5.45;;
9986;SDS011;5033;46.310;11.214;2022-07-19T08:28:23;6.10;;;5.50;;
9986;SDS011;5033;46.310;11.214;2022-07-19T08:30:50;6.85;;;5.30;;
9986;SDS011;5033;46.310;11.214;2022-07-19T08:33:17;6.40;;;5.80;;
9986;SDS011;5033;46.310;11.214;2022-07-19T08:35:46;5.80;;;5.15;;
9986;SDS011;5033;46.310;11.214;2022-07-19T08:38:13;7.25;;;6.05;;
9986;SDS011;5033;46.310;11.214;2022-07-19T08:40:41;6.00;;;5.50;;
9986;SDS011;5033;46.310;11.214;2022-07-19T08:43:09;5.70;;;5.20;;
9986;SDS011;5033;46.310;11.214;2022-07-19T08:45:37;6.05;;;5.55;;
9986;SDS011;5033;46.310;11.214;2022-07-19T08:48:06;5.65;;;5.15;;
9986;SDS011;5033;46.310;11.214;2022-07-19T08:50:33;5.65;;;5.25;;
9986;SDS011;5033;46.310;11.214;2022-07-19T08:53:02;6.15;;;5.30;;
9986;SDS011;5033;46.310;11.214;2022-07-19T08:55:29;5.88;;;5.38;;
9986;SDS011;5033;46.310;11.214;2022-07-19T08:57:57;5.80;;;5.30;;
9986;SDS011;5033;46.310;11.214;2022-07-19T09:00:23;6.35;;;5.75;;
9986;SDS011;5033;46.310;11.214;2022-07-19T09:02:51;5.32;;;4.93;;
9986;SDS011;5033;46.310;11.214;2022-07-19T09:05:20;5.32;;;4.93;;
9986;SDS011;5033;46.310;11.214;2022-07-19T09:07:59;5.90;;;5.38;;
9986;SDS011;5033;46.310;11.214;2022-07-19T09:10:34;5.47;;;4.93;;
9986;SDS011;5033;46.310;11.214;2022-07-19T09:13:04;5.53;;;5.13;;
9986;SDS011;5033;46.310;11.214;2022-07-19T09:15:43;6.35;;;5.68;;
9986;SDS011;5033;46.310;11.214;2022-07-19T09:18:13;5.80;;;5.20;;
9986;SDS011;5033;46.310;11.214;2022-07-19T09:20:42;5.25;;;4.85;;
9986;SDS011;5033;46.310;11.214;2022-07-19T09:23:13;5.13;;;4.63;;
9986;SDS011;5033;46.310;11.214;2022-07-19T09:25:41;6.65;;;5.50;;
9986;SDS011;5033;46.310;11.214;2022-07-19T09:28:10;5.22;;;4.82;;
9986;SDS011;5033;46.310;11.214;2022-07-19T09:30:38;5.35;;;4.85;;
9986;SDS011;5033;46.310;11.214;2022-07-19T09:33:07;4.28;;;3.97;;
9986;SDS011;5033;46.310;11.214;2022-07-19T09:35:37;4.78;;;4.35;;
9986;SDS011;5033;46.310;11.214;2022-07-19T09:38:15;5.50;;;5.00;;
9986;SDS011;5033;46.310;11.214;2022-07-19T09:40:46;5.85;;;5.30;;
9986;SDS011;5033;46.310;11.214;2022-07-19T09:43:13;5.60;;;5.10;;
9986;SDS011;5033;46.310;11.214;2022-07-19T09:45:41;5.13;;;4.53;;
9986;SDS011;5033;46.310;11.214;2022-07-19T09:48:08;4.90;;;4.50;;
9986;SDS011;5033;46.310;11.214;2022-07-19T09:50:35;5.68;;;5.18;;
9986;SDS011;5033;46.310;11.214;2022-07-19T09:53:03;5.35;;;4.85;;
9986;SDS011;5033;46.310;11.214;2022-07-19T09:55:33;5.32;;;4.82;;
9986;SDS011;5033;46.310;11.214;2022-07-19T09:58:00;6.13;;;4.95;;
9986;SDS011;5033;46.310;11.214;2022-07-19T10:00:28;5.05;;;4.50;;
9986;SDS011;5033;46.310;11.214;2022-07-19T10:02:56;5.63;;;5.13;;
9986;SDS011;5033;46.310;11.214;2022-07-19T10:05:26;5.28;;;4.88;;
9986;SDS011;5033;46.310;11.214;2022-07-19T10:07:55;5.00;;;4.60;;
9986;SDS011;5033;46.310;11.214;2022-07-19T10:10:23;6.80;;;5.13;;
9986;SDS011;5033;46.310;11.214;2022-07-19T10:12:56;5.28;;;4.72;;
9986;SDS011;5033;46.310;11.214;2022-07-19T10:15:24;5.47;;;4.97;;
9986;SDS011;5033;46.310;11.214;2022-07-19T10:18:03;4.75;;;4.22;;
9986;SDS011;5033;46.310;11.214;2022-07-19T10:20:35;4.97;;;4.57;;
9986;SDS011;5033;46.310;11.214;2022-07-19T10:23:04;5.57;;;5.05;;
9986;SDS011;5033;46.310;11.214;2022-07-19T10:25:38;5.75;;;5.15;;
9986;SDS011;5033;46.310;11.214;2022-07-19T10:30:54;5.32;;;4.88;;
9986;SDS011;5033;46.310;11.214;2022-07-19T10:33:25;4.88;;;4.47;;
9986;SDS011;5033;46.310;11.214;2022-07-19T10:35:54;5.03;;;4.55;;
9986;SDS011;5033;46.310;11.214;2022-07-19T10:38:21;6.25;;;4.90;;
9986;SDS011;5033;46.310;11.214;2022-07-19T10:40:49;7.18;;;5.05;;
9986;SDS011;5033;46.310;11.214;2022-07-19T10:43:23;4.85;;;4.45;;
9986;SDS011;5033;46.310;11.214;2022-07-19T10:46:09;5.32;;;4.93;;
9986;SDS011;5033;46.310;11.214;2022-07-19T10:48:39;5.53;;;5.03;;
9986;SDS011;5033;46.310;11.214;2022-07-19T10:51:07;5.18;;;4.78;;
9986;SDS011;5033;46.310;11.214;2022-07-19T10:56:26;5.57;;;5.05;;
9986;SDS011;5033;46.310;11.214;2022-07-19T10:58:56;4.90;;;4.50;;
9986;SDS011;5033;46.310;11.214;2022-07-19T11:01:26;5.03;;;4.63;;
9986;SDS011;5033;46.310;11.214;2022-07-19T11:03:54;7.05;;;5.13;;
9986;SDS011;5033;46.310;11.214;2022-07-19T11:06:49;5.53;;;5.03;;
9986;SDS011;5033;46.310;11.214;2022-07-19T11:09:16;5.68;;;5.07;;
9986;SDS011;5033;46.310;11.214;2022-07-19T11:11:43;5.45;;;4.85;;
9986;SDS011;5033;46.310;11.214;2022-07-19T11:14:10;5.72;;;5.22;;
9986;SDS011;5033;46.310;11.214;2022-07-19T11:16:39;6.03;;;4.72;;
9986;SDS011;5033;46.310;11.214;2022-07-19T11:19:07;5.47;;;4.88;;
9986;SDS011;5033;46.310;11.214;2022-07-19T11:21:36;5.50;;;4.88;;
9986;SDS011;5033;46.310;11.214;2022-07-19T11:24:03;5.20;;;4.70;;
9986;SDS011;5033;46.310;11.214;2022-07-19T11:26:34;5.10;;;4.70;;
9986;SDS011;5033;46.310;11.214;2022-07-19T11:29:04;5.38;;;4.80;;
9986;SDS011;5033;46.310;11.214;2022-07-19T11:31:31;5.25;;;4.75;;
9986;SDS011;5033;46.310;11.214;2022-07-19T11:34:00;5.78;;;4.50;;
9986;SDS011;5033;46.310;11.214;2022-07-19T11:36:27;5.55;;;4.80;;
9986;SDS011;5033;46.310;11.214;2022-07-19T11:38:55;4.75;;;4.28;;
9986;SDS011;5033;46.310;11.214;2022-07-19T11:41:24;5.38;;;4.85;;
9986;SDS011;5033;46.310;11.214;2022-07-19T11:43:53;5.47;;;4.85;;
9986;SDS011;5033;46.310;11.214;2022-07-19T11:46:20;5.35;;;4.85;;
9986;SDS011;5033;46.310;11.214;2022-07-19T11:48:48;6.22;;;4.80;;
9986;SDS011;5033;46.310;11.214;2022-07-19T11:51:17;4.57;;;4.18;;
9986;SDS011;5033;46.310;11.214;2022-07-19T11:53:44;4.95;;;4.55;;
9986;SDS011;5033;46.310;11.214;2022-07-19T11:56:17;5.00;;;4.50;;
9986;SDS011;5033;46.310;11.214;2022-07-19T11:58:45;5.32;;;4.80;;
9986;SDS011;5033;46.310;11.214;2022-07-19T12:01:13;5.32;;;4.50;;
9986;SDS011;5033;46.310;11.214;2022-07-19T12:03:41;5.57;;;4.70;;
9986;SDS011;5033;46.310;11.214;2022-07-19T12:06:20;10.15;;;5.00;;
9986;SDS011;5033;46.310;11.214;2022-07-19T12:09:03;5.22;;;4.82;;
9986;SDS011;5033;46.310;11.214;2022-07-19T12:11:37;4.50;;;4.10;;
9986;SDS011;5033;46.310;11.214;2022-07-19T12:14:16;5.25;;;4.72;;
9986;SDS011;5033;46.310;11.214;2022-07-19T12:16:45;5.70;;;5.10;;
9986;SDS011;5033;46.310;11.214;2022-07-19T12:19:12;5.22;;;4.75;;
9986;SDS011;5033;46.310;11.214;2022-07-19T12:21:44;5.57;;;4.72;;
9986;SDS011;5033;46.310;11.214;2022-07-19T12:24:21;5.40;;;4.90;;
9986;SDS011;5033;46.310;11.214;2022-07-19T12:26:59;4.93;;;4.53;;
9986;SDS011;5033;46.310;11.214;2022-07-19T12:29:29;4.93;;;4.53;;
9986;SDS011;5033;46.310;11.214;2022-07-19T12:31:58;7.47;;;4.22;;
9986;SDS011;5033;46.310;11.214;2022-07-19T12:34:27;5.88;;;5.38;;
9986;SDS011;5033;46.310;11.214;2022-07-19T12:36:56;4.85;;;4.45;;
9986;SDS011;5033;46.310;11.214;2022-07-19T12:39:24;6.40;;;4.88;;
9986;SDS011;5033;46.310;11.214;2022-07-19T12:41:57;4.80;;;4.38;;
9986;SDS011;5033;46.310;11.214;2022-07-19T12:44:32;4.40;;;4.10;;
9986;SDS011;5033;46.310;11.214;2022-07-19T12:47:00;4.93;;;4.30;;
9986;SDS011;5033;46.310;11.214;2022-07-19T12:49:39;6.65;;;4.55;;
9986;SDS011;5033;46.310;11.214;2022-07-19T12:52:09;5.20;;;4.13;;
9986;SDS011;5033;46.310;11.214;2022-07-19T12:54:36;5.00;;;4.30;;
9986;SDS011;5033;46.310;11.214;2022-07-19T12:57:03;7.20;;;4.03;;
9986;SDS011;5033;46.310;11.214;2022-07-19T12:59:31;6.50;;;4.68;;
9986;SDS011;5033;46.310;11.214;2022-07-19T13:02:07;7.03;;;4.82;;
9986;SDS011;5033;46.310;11.214;2022-07-19T13:04:40;4.82;;;4.50;;
9986;SDS011;5033;46.310;11.214;2022-07-19T13:07:10;6.32;;;4.57;;
9986;SDS011;5033;46.310;11.214;2022-07-19T13:09:38;8.07;;;4.90;;
9986;SDS011;5033;46.310;11.214;2022-07-19T13:12:09;4.68;;;4.25;;
9986;SDS011;5033;46.310;11.214;2022-07-19T13:14:36;5.30;;;4.80;;
9986;SDS011;5033;46.310;11.214;2022-07-19T13:17:04;6.82;;;4.72;;
9986;SDS011;5033;46.310;11.214;2022-07-19T13:19:35;5.50;;;4.88;;
9986;SDS011;5033;46.310;11.214;2022-07-19T13:22:03;5.47;;;5.00;;
9986;SDS011;5033;46.310;11.214;2022-07-19T13:24:32;6.82;;;4.88;;
9986;SDS011;5033;46.310;11.214;2022-07-19T13:27:00;5.10;;;4.60;;
9986;SDS011;5033;46.310;11.214;2022-07-19T13:29:27;4.97;;;4.57;;
9986;SDS011;5033;46.310;11.214;2022-07-19T13:31:54;6.07;;;4.60;;
9986;SDS011;5033;46.310;11.214;2022-07-19T13:34:22;5.25;;;4.72;;
9986;SDS011;5033;46.310;11.214;2022-07-19T13:36:50;5.22;;;4.72;;
9986;SDS011;5033;46.310;11.214;2022-07-19T13:39:17;5.68;;;4.90;;
9986;SDS011;5033;46.310;11.214;2022-07-19T13:41:46;4.68;;;4.28;;
9986;SDS011;5033;46.310;11.214;2022-07-19T13:44:13;6.22;;;4.20;;
9986;SDS011;5033;46.310;11.214;2022-07-19T13:46:40;5.13;;;4.68;;
9986;SDS011;5033;46.310;11.214;2022-07-19T13:49:07;5.22;;;4.78;;
9986;SDS011;5033;46.310;11.214;2022-07-19T13:51:34;4.10;;;3.80;;
9986;SDS011;5033;46.310;11.214;2022-07-19T13:54:01;4.97;;;4.57;;
9986;SDS011;5033;46.310;11.214;2022-07-19T13:56:28;6.60;;;4.32;;
9986;SDS011;5033;46.310;11.214;2022-07-19T13:58:57;5.95;;;4.50;;
9986;SDS011;5033;46.310;11.214;2022-07-19T14:01:25;5.07;;;4.57;;
9986;SDS011;5033;46.310;11.214;2022-07-19T14:03:52;5.32;;;3.90;;
9986;SDS011;5033;46.310;11.214;2022-07-19T14:06:21;4.72;;;4.30;;
9986;SDS011;5033;46.310;11.214;2022-07-19T14:08:51;4.63;;;4.15;;
9986;SDS011;5033;46.310;11.214;2022-07-19T14:11:18;5.75;;;4.20;;
9986;SDS011;5033;46.310;11.214;2022-07-19T14:13:45;6.70;;;4.18;;
9986;SDS011;5033;46.310;11.214;2022-07-19T14:16:14;5.18;;;4.30;;
9986;SDS011;5033;46.310;11.214;2022-07-19T14:18:41;4.53;;;4.10;;
9986;SDS011;5033;46.310;11.214;2022-07-19T14:21:08;4.78;;;4.32;;
9986;SDS011;5033;46.310;11.214;2022-07-19T14:23:35;5.53;;;4.30;;
9986;SDS011;5033;46.310;11.214;2022-07-19T14:26:03;4.97;;;4.47;;
9986;SDS011;5033;46.310;11.214;2022-07-19T14:28:30;9.20;;;4.28;;
9986;SDS011;5033;46.310;11.214;2022-07-19T14:30:57;4.93;;;3.92;;
9986;SDS011;5033;46.310;11.214;2022-07-19T14:33:25;4.95;;;3.95;;
9986;SDS011;5033;46.310;11.214;2022-07-19T14:35:52;4.28;;;3.97;;
9986;SDS011;5033;46.310;11.214;2022-07-19T14:38:19;4.22;;;3.85;;
9986;SDS011;5033;46.310;11.214;2022-07-19T14:40:46;6.78;;;3.70;;
9986;SDS011;5033;46.310;11.214;2022-07-19T14:43:14;4.55;;;3.75;;
9986;SDS011;5033;46.310;11.214;2022-07-19T14:45:41;4.10;;;3.75;;
9986;SDS011;5033;46.310;11.214;2022-07-19T14:48:08;3.83;;;3.53;;
9986;SDS011;5033;46.310;11.214;2022-07-19T14:50:37;3.42;;;3.20;;
9986;SDS011;5033;46.310;11.214;2022-07-19T14:53:04;4.03;;;3.65;;
9986;SDS011;5033;46.310;11.214;2022-07-19T14:55:31;11.02;;;3.70;;
9986;SDS011;5033;46.310;11.214;2022-07-19T14:57:58;3.92;;;3.60;;
9986;SDS011;5033;46.310;11.214;2022-07-19T15:00:25;3.63;;;3.33;;
9986;SDS011;5033;46.310;11.214;2022-07-19T15:02:52;4.95;;;3.35;;
9986;SDS011;5033;46.310;11.214;2022-07-19T15:05:19;5.55;;;3.58;;
9986;SDS011;5033;46.310;11.214;2022-07-19T15:07:50;4.65;;;3.75;;
9986;SDS011;5033;46.310;11.214;2022-07-19T15:10:17;5.03;;;3.70;;
9986;SDS011;5033;46.310;11.214;2022-07-19T15:12:44;6.88;;;3.80;;
9986;SDS011;5033;46.310;11.214;2022-07-19T15:15:11;4.43;;;3.28;;